createdAt,value
2023-01-19T00:00:08.397Z,18.70
2023-01-19T00:02:35.727Z,20.73
2023-01-19T00:05:21.943Z,19.27
2023-01-19T00:07:49.289Z,19.37
2023-01-19T00:10:16.740Z,18.67
2023-01-19T00:12:44.053Z,18.83
2023-01-19T00:15:11.628Z,18.30
2023-01-19T00:17:41.069Z,18.20
2023-01-19T00:20:10.069Z,21.13
2023-01-19T00:22:37.475Z,19.70
2023-01-19T00:25:04.823Z,19.70
2023-01-19T00:27:34.951Z,19.43
2023-01-19T00:30:02.779Z,18.87
2023-01-19T00:32:30.088Z,21.17
2023-01-19T00:34:57.322Z,18.23
2023-01-19T00:37:24.629Z,19.73
2023-01-19T00:39:51.864Z,18.37
2023-01-19T00:42:37.606Z,20.87
2023-01-19T00:45:05.228Z,22.40
2023-01-19T00:47:33.298Z,25.43
2023-01-19T00:50:00.738Z,25.43
2023-01-19T00:52:28.315Z,21.40
2023-01-19T00:54:55.613Z,25.07
2023-01-19T00:57:23.615Z,21.27
2023-01-19T00:59:51.122Z,34.47
2023-01-19T01:02:18.459Z,27.83
2023-01-19T01:04:45.935Z,17.63
2023-01-19T01:07:13.154Z,17.03
2023-01-19T01:09:40.389Z,15.90
2023-01-19T01:12:07.805Z,18.03
2023-01-19T01:14:35.147Z,18.23
2023-01-19T01:17:02.359Z,17.13
2023-01-19T01:19:29.595Z,16.23
2023-01-19T01:21:56.894Z,19.10
2023-01-19T01:24:24.147Z,17.80
2023-01-19T01:26:51.391Z,18.97
2023-01-19T01:29:18.609Z,21.40
2023-01-19T01:31:46.043Z,18.77
2023-01-19T01:34:13.575Z,23.63
2023-01-19T01:36:40.770Z,21.87
2023-01-19T01:39:08.053Z,21.20
2023-01-19T01:41:35.267Z,17.87
2023-01-19T01:44:06.291Z,19.13
2023-01-19T01:46:33.683Z,19.73
2023-01-19T01:49:06.617Z,20.07
2023-01-19T01:51:54.129Z,20.07
2023-01-19T01:54:27.685Z,19.67
2023-01-19T01:56:57.007Z,18.30
2023-01-19T01:59:27.213Z,19.67
2023-01-19T02:02:17.227Z,18.50
2023-01-19T02:04:48.346Z,18.27
2023-01-19T02:07:36.482Z,17.40
2023-01-19T02:10:23.660Z,16.63
2023-01-19T02:13:10.261Z,17.70
2023-01-19T02:15:37.618Z,18.30
2023-01-19T02:18:04.880Z,17.60
2023-01-19T02:20:32.545Z,17.27
2023-01-19T02:23:03.013Z,14.37
2023-01-19T02:25:30.458Z,16.90
2023-01-19T02:27:57.765Z,17.03
2023-01-19T02:30:25.677Z,15.60
2023-01-19T02:32:53.314Z,16.67
2023-01-19T02:35:20.911Z,16.80
2023-01-19T02:37:52.877Z,17.47
2023-01-19T02:40:22.064Z,15.07
2023-01-19T02:42:50.731Z,14.57
2023-01-19T02:45:20.686Z,14.00
2023-01-19T02:47:52.179Z,16.60
2023-01-19T02:50:50.674Z,17.03
2023-01-19T02:53:23.630Z,16.57
2023-01-19T02:56:06.206Z,17.50
2023-01-19T02:58:50.448Z,16.23
2023-01-19T03:01:24.868Z,14.87
2023-01-19T03:03:55.044Z,18.47
2023-01-19T03:06:25.051Z,15.83
2023-01-19T03:09:03.322Z,15.20
2023-01-19T03:11:34.223Z,15.17
2023-01-19T03:14:15.708Z,16.10
2023-01-19T03:16:50.559Z,17.73
2023-01-19T03:19:29.291Z,17.37
2023-01-19T03:22:01.671Z,21.37
2023-01-19T03:24:36.910Z,16.33
2023-01-19T03:27:11.145Z,17.83
2023-01-19T03:29:39.450Z,19.67
2023-01-19T03:32:12.699Z,20.13
2023-01-19T03:34:40.493Z,20.27
2023-01-19T03:37:08.284Z,18.07
2023-01-19T03:39:35.577Z,22.27
2023-01-19T03:42:05.170Z,21.70
2023-01-19T03:44:34.377Z,22.30
2023-01-19T03:47:01.871Z,21.07
2023-01-19T03:49:31.670Z,24.03
2023-01-19T03:51:59.388Z,21.37
2023-01-19T03:54:27.238Z,19.73
2023-01-19T03:56:54.521Z,19.43
2023-01-19T03:59:21.891Z,19.17
2023-01-19T04:01:49.803Z,21.17
2023-01-19T04:04:17.164Z,22.23
2023-01-19T04:06:44.655Z,20.53
2023-01-19T04:09:12.029Z,21.00
2023-01-19T04:11:39.286Z,21.07
2023-01-19T04:14:06.715Z,23.30
2023-01-19T04:16:33.944Z,19.33
2023-01-19T04:19:01.143Z,17.50
2023-01-19T04:21:28.419Z,21.43
2023-01-19T04:23:55.621Z,21.67
2023-01-19T04:26:24.033Z,21.97
2023-01-19T04:28:51.529Z,17.37
2023-01-19T04:31:19.446Z,18.60
2023-01-19T04:33:46.740Z,21.40
2023-01-19T04:36:13.981Z,18.67
2023-01-19T04:38:41.440Z,19.60
2023-01-19T04:41:08.661Z,19.97
2023-01-19T04:43:35.948Z,16.70
2023-01-19T04:46:03.373Z,16.63
2023-01-19T04:48:30.602Z,20.80
2023-01-19T04:50:57.816Z,16.63
2023-01-19T04:53:25.090Z,17.97
2023-01-19T04:55:55.754Z,17.57
2023-01-19T04:58:23.073Z,15.40
2023-01-19T05:00:51.259Z,16.17
2023-01-19T05:03:19.414Z,18.13
2023-01-19T05:05:47.283Z,15.37
2023-01-19T05:08:14.988Z,19.40
2023-01-19T05:10:42.338Z,16.73
2023-01-19T05:13:09.558Z,18.80
2023-01-19T05:15:36.813Z,20.57
2023-01-19T05:18:23.185Z,20.43
2023-01-19T05:20:50.669Z,18.17
2023-01-19T05:23:17.976Z,18.23
2023-01-19T05:25:45.740Z,19.37
2023-01-19T05:28:13.102Z,17.70
2023-01-19T05:30:40.364Z,18.23
2023-01-19T05:33:07.178Z,16.50
2023-01-19T05:35:36.164Z,15.80
2023-01-19T05:38:04.155Z,16.53
2023-01-19T05:40:31.015Z,14.97
2023-01-19T05:43:01.045Z,16.27
2023-01-19T05:45:28.605Z,16.13
2023-01-19T05:48:14.388Z,14.47
2023-01-19T05:50:41.208Z,14.70
2023-01-19T05:53:08.129Z,15.60
2023-01-19T05:55:34.989Z,17.37
2023-01-19T05:58:02.105Z,15.53
2023-01-19T06:00:29.169Z,15.03
2023-01-19T06:02:56.282Z,16.90
2023-01-19T06:05:23.080Z,86.30
2023-01-19T06:07:49.920Z,44.93
2023-01-19T06:10:16.987Z,44.80
2023-01-19T06:12:44.039Z,16.83
2023-01-19T06:15:11.449Z,16.20
2023-01-19T06:17:38.298Z,19.07
2023-01-19T06:20:05.620Z,15.47
2023-01-19T06:22:32.629Z,15.80
2023-01-19T06:25:02.171Z,15.43
2023-01-19T06:27:29.380Z,16.07
2023-01-19T06:29:56.230Z,14.30
2023-01-19T06:32:23.055Z,13.63
2023-01-19T06:34:50.105Z,13.03
2023-01-19T06:37:17.529Z,13.77
2023-01-19T06:39:45.420Z,11.87
2023-01-19T06:42:12.364Z,15.07
2023-01-19T06:44:43.524Z,12.53
2023-01-19T06:47:15.219Z,10.87
2023-01-19T06:49:42.901Z,11.30
2023-01-19T06:52:11.451Z,10.83
2023-01-19T06:54:38.299Z,11.40
2023-01-19T06:57:05.421Z,11.33
2023-01-19T06:59:32.255Z,11.57
2023-01-19T07:01:59.310Z,12.53
2023-01-19T07:04:27.093Z,11.27
2023-01-19T07:06:54.055Z,10.20
2023-01-19T07:09:21.395Z,10.30
2023-01-19T07:11:49.186Z,11.67
2023-01-19T07:14:16.604Z,9.97
2023-01-19T07:16:43.655Z,12.73
2023-01-19T07:19:10.832Z,10.47
2023-01-19T07:21:37.781Z,11.37
2023-01-19T07:24:04.828Z,10.23
2023-01-19T07:26:31.678Z,12.60
2023-01-19T07:28:58.472Z,9.97
2023-01-19T07:31:25.567Z,9.37
2023-01-19T07:33:52.496Z,11.60
2023-01-19T07:36:19.392Z,11.27
2023-01-19T07:38:46.205Z,11.00
2023-01-19T07:41:14.155Z,9.67
2023-01-19T07:43:41.365Z,10.67
2023-01-19T07:46:08.617Z,9.53
2023-01-19T07:48:35.858Z,9.70
2023-01-19T07:51:17.886Z,12.13
2023-01-19T07:53:46.136Z,11.00
2023-01-19T07:56:13.383Z,10.83
2023-01-19T07:58:40.433Z,9.63
2023-01-19T08:01:13.222Z,8.97
2023-01-19T08:03:40.179Z,9.00
2023-01-19T08:06:07.735Z,8.20
2023-01-19T08:08:35.116Z,9.83
2023-01-19T08:11:02.235Z,9.07
2023-01-19T08:13:29.207Z,8.27
2023-01-19T08:15:56.068Z,9.63
2023-01-19T08:18:22.905Z,9.87
2023-01-19T08:20:49.818Z,11.97
2023-01-19T08:23:18.065Z,11.30
2023-01-19T08:25:45.367Z,11.00
2023-01-19T08:28:14.978Z,9.97
2023-01-19T08:30:44.298Z,9.93
2023-01-19T08:33:12.444Z,10.17
2023-01-19T08:35:42.216Z,9.57
2023-01-19T08:38:10.732Z,8.50
2023-01-19T08:40:40.410Z,9.60
2023-01-19T08:43:13.215Z,9.33
2023-01-19T08:45:48.033Z,8.20
2023-01-19T08:48:22.208Z,9.37
2023-01-19T08:50:50.231Z,10.27
2023-01-19T08:53:18.183Z,8.80
2023-01-19T08:55:44.983Z,8.17
2023-01-19T08:58:11.851Z,8.07
2023-01-19T09:00:39.602Z,8.70
2023-01-19T09:03:08.819Z,8.90
2023-01-19T09:05:55.561Z,9.60
2023-01-19T09:08:22.372Z,10.40
2023-01-19T09:11:11.483Z,7.67
2023-01-19T09:13:38.557Z,9.30
2023-01-19T09:16:09.416Z,7.83
2023-01-19T09:18:36.329Z,7.30
2023-01-19T09:21:07.064Z,9.57
2023-01-19T09:23:34.489Z,9.13
2023-01-19T09:26:03.132Z,8.90
2023-01-19T09:28:30.176Z,7.63
2023-01-19T09:30:57.548Z,8.87
2023-01-19T09:33:24.749Z,7.90
2023-01-19T09:35:52.301Z,7.07
2023-01-19T09:38:20.330Z,7.60
2023-01-19T09:40:53.789Z,7.20
2023-01-19T09:43:42.957Z,7.67
2023-01-19T09:46:18.710Z,6.23
2023-01-19T09:48:47.582Z,7.33
2023-01-19T09:51:21.868Z,8.77
2023-01-19T09:54:04.196Z,7.23
2023-01-19T09:56:32.252Z,6.90
2023-01-19T09:59:00.144Z,7.37
2023-01-19T10:01:56.611Z,6.77
2023-01-19T10:04:45.155Z,7.00
2023-01-19T10:07:26.791Z,5.67
2023-01-19T10:10:21.955Z,7.80
2023-01-19T10:13:02.757Z,6.73
2023-01-19T10:15:35.734Z,6.37
2023-01-19T10:18:13.219Z,7.13
2023-01-19T10:20:54.445Z,6.33
2023-01-19T10:23:39.673Z,6.93
2023-01-19T10:26:17.212Z,6.47
2023-01-19T10:28:48.065Z,6.93
2023-01-19T10:31:19.158Z,7.43
2023-01-19T10:33:46.315Z,7.43
2023-01-19T10:36:18.482Z,7.73
2023-01-19T10:38:47.051Z,7.23
2023-01-19T10:41:41.967Z,6.47
2023-01-19T10:44:10.763Z,7.20
2023-01-19T10:46:46.032Z,7.80
2023-01-19T10:49:37.419Z,7.97
2023-01-19T10:52:07.143Z,6.90
2023-01-19T10:54:36.853Z,5.63
2023-01-19T10:57:05.688Z,6.77
2023-01-19T10:59:35.431Z,5.77
2023-01-19T11:02:21.768Z,5.70
2023-01-19T11:04:51.379Z,6.97
2023-01-19T11:07:20.697Z,5.43
2023-01-19T11:09:48.352Z,5.83
2023-01-19T11:12:20.904Z,5.47
2023-01-19T11:14:49.414Z,5.87
2023-01-19T11:17:21.460Z,7.83
2023-01-19T11:20:02.817Z,5.63
2023-01-19T11:22:34.231Z,7.83
2023-01-19T11:25:02.429Z,5.33
2023-01-19T11:27:30.626Z,4.53
2023-01-19T11:30:10.391Z,5.17
2023-01-19T11:32:37.685Z,5.47
2023-01-19T11:35:23.605Z,4.50
2023-01-19T11:37:50.850Z,6.63
2023-01-19T11:40:18.160Z,5.13
2023-01-19T11:42:45.551Z,5.30
2023-01-19T11:45:18.384Z,6.77
2023-01-19T11:47:47.156Z,5.87
2023-01-19T11:50:17.356Z,6.90
2023-01-19T11:52:46.995Z,7.83
2023-01-19T11:55:14.857Z,5.70
2023-01-19T11:57:46.963Z,7.23
2023-01-19T12:00:36.023Z,6.07
2023-01-19T12:03:22.348Z,6.00
2023-01-19T12:05:52.187Z,7.07
2023-01-19T12:08:21.774Z,8.77
2023-01-19T12:10:49.855Z,6.23
2023-01-19T12:13:24.815Z,6.37
2023-01-19T12:15:55.090Z,8.33
2023-01-19T12:18:23.377Z,6.57
2023-01-19T12:20:54.716Z,6.00
2023-01-19T12:23:27.797Z,6.03
2023-01-19T12:26:04.010Z,6.60
2023-01-19T12:28:32.976Z,5.87
2023-01-19T12:31:01.725Z,4.97
2023-01-19T12:33:29.293Z,6.47
2023-01-19T12:35:57.132Z,5.77
2023-01-19T12:38:24.328Z,5.80
2023-01-19T12:40:51.565Z,5.30
2023-01-19T12:43:18.818Z,4.33
2023-01-19T12:45:48.075Z,4.57
2023-01-19T12:48:25.299Z,4.87
2023-01-19T12:50:52.548Z,3.57
2023-01-19T12:53:21.279Z,4.10
2023-01-19T12:55:59.833Z,5.27
2023-01-19T12:58:27.530Z,3.67
2023-01-19T13:01:15.268Z,2.60
2023-01-19T13:03:44.212Z,4.30
2023-01-19T13:06:11.498Z,5.53
2023-01-19T13:08:58.231Z,4.67
2023-01-19T13:11:27.857Z,3.80
2023-01-19T13:13:59.673Z,4.13
2023-01-19T13:16:27.533Z,5.73
2023-01-19T13:18:54.806Z,4.50
2023-01-19T13:21:31.271Z,5.40
2023-01-19T13:24:00.102Z,4.23
2023-01-19T13:26:35.092Z,5.17
2023-01-19T13:29:05.419Z,4.50
2023-01-19T13:31:40.209Z,4.00
2023-01-19T13:34:15.326Z,4.27
2023-01-19T13:36:46.998Z,3.97
2023-01-19T13:39:18.847Z,4.70
2023-01-19T13:41:46.728Z,4.13
2023-01-19T13:44:17.658Z,3.83
2023-01-19T13:46:46.072Z,3.73
2023-01-19T13:49:17.773Z,4.60
2023-01-19T13:51:45.265Z,5.30
2023-01-19T13:54:17.586Z,6.33
2023-01-19T13:56:50.915Z,3.50
2023-01-19T13:59:18.224Z,4.37
2023-01-19T14:01:46.572Z,3.67
2023-01-19T14:04:34.115Z,4.00
2023-01-19T14:07:02.907Z,4.53
2023-01-19T14:09:30.309Z,3.33
2023-01-19T14:12:08.527Z,3.70
2023-01-19T14:14:35.914Z,4.90
2023-01-19T14:17:03.241Z,3.87
2023-01-19T14:19:30.670Z,5.07
2023-01-19T14:22:05.292Z,3.97
2023-01-19T14:24:33.232Z,3.67
2023-01-19T14:27:19.393Z,4.57
2023-01-19T14:29:47.496Z,4.07
2023-01-19T14:32:14.838Z,6.83
2023-01-19T14:34:51.196Z,5.63
2023-01-19T14:37:29.006Z,3.60
2023-01-19T14:40:04.466Z,5.10
2023-01-19T14:42:33.407Z,4.37
2023-01-19T14:45:01.867Z,4.73
2023-01-19T14:47:39.473Z,5.00
2023-01-19T14:50:19.592Z,4.53
2023-01-19T14:53:02.432Z,3.90
2023-01-19T14:55:34.472Z,5.33
2023-01-19T14:58:01.939Z,5.67
2023-01-19T15:00:29.205Z,4.77
2023-01-19T15:02:56.517Z,6.57
2023-01-19T15:05:23.891Z,6.30
2023-01-19T15:07:53.146Z,6.63
2023-01-19T15:10:22.424Z,5.97
2023-01-19T15:12:50.773Z,6.20
2023-01-19T15:15:19.592Z,5.77
2023-01-19T15:17:46.984Z,6.03
2023-01-19T15:20:19.211Z,6.23
2023-01-19T15:22:46.531Z,6.83
2023-01-19T15:25:14.964Z,6.70
2023-01-19T15:27:42.880Z,5.70
2023-01-19T15:30:17.332Z,6.20
2023-01-19T15:32:44.936Z,6.17
2023-01-19T15:35:16.474Z,5.90
2023-01-19T15:37:43.858Z,5.67
2023-01-19T15:40:45.187Z,6.60
2023-01-19T15:43:12.508Z,6.30
2023-01-19T15:45:42.647Z,7.73
2023-01-19T15:48:11.233Z,7.10
2023-01-19T15:50:43.129Z,8.40
2023-01-19T15:53:36.909Z,6.83
2023-01-19T15:56:04.189Z,6.47
2023-01-19T15:58:31.751Z,5.80
2023-01-19T16:01:00.087Z,5.63
2023-01-19T16:03:27.445Z,7.43
2023-01-19T16:05:54.715Z,7.03
2023-01-19T16:08:22.115Z,6.37
2023-01-19T16:10:49.432Z,9.77
2023-01-19T16:13:16.700Z,7.20
2023-01-19T16:15:44.050Z,6.50
2023-01-19T16:18:11.343Z,6.20
2023-01-19T16:20:38.599Z,6.30
2023-01-19T16:23:21.111Z,8.63
2023-01-19T16:26:04.856Z,7.13
2023-01-19T16:28:32.605Z,7.53
2023-01-19T16:31:00.048Z,6.97
2023-01-19T16:33:27.258Z,7.63
2023-01-19T16:35:54.541Z,9.13
2023-01-19T16:38:23.369Z,7.03
2023-01-19T16:40:50.637Z,7.40
2023-01-19T16:43:18.592Z,10.17
2023-01-19T16:46:02.743Z,8.13
2023-01-19T16:48:32.243Z,7.77
2023-01-19T16:51:06.460Z,6.80
2023-01-19T16:53:35.819Z,6.60
2023-01-19T16:56:06.972Z,8.93
2023-01-19T16:58:34.908Z,7.50
2023-01-19T17:01:06.549Z,6.97
2023-01-19T17:03:33.851Z,7.97
2023-01-19T17:06:01.106Z,6.83
2023-01-19T17:08:28.380Z,6.70
2023-01-19T17:10:56.139Z,7.53
2023-01-19T17:13:23.443Z,7.50
2023-01-19T17:15:51.146Z,6.57
2023-01-19T17:18:18.451Z,6.83
2023-01-19T17:20:45.688Z,6.27
2023-01-19T17:23:12.943Z,6.90
2023-01-19T17:25:40.382Z,6.53
2023-01-19T17:28:07.692Z,8.53
2023-01-19T17:30:35.044Z,7.83
2023-01-19T17:33:02.306Z,6.80
2023-01-19T17:35:30.029Z,8.63
2023-01-19T17:37:58.308Z,7.70
2023-01-19T17:40:26.203Z,6.33
2023-01-19T17:42:53.473Z,7.93
2023-01-19T17:48:05.854Z,6.20
2023-01-19T17:50:34.629Z,6.40
2023-01-19T17:53:01.890Z,6.93
2023-01-19T17:55:29.126Z,6.40
2023-01-19T17:57:56.349Z,6.97
2023-01-19T18:00:23.784Z,6.73
2023-01-19T18:02:51.916Z,5.57
2023-01-19T18:05:19.353Z,6.43
2023-01-19T18:07:47.010Z,6.93
2023-01-19T18:10:14.618Z,6.37
2023-01-19T18:12:42.108Z,7.07
2023-01-19T18:15:09.799Z,8.97
2023-01-19T18:17:37.147Z,7.80
2023-01-19T18:20:04.689Z,9.10
2023-01-19T18:22:32.230Z,8.00
2023-01-19T18:25:01.547Z,9.00
2023-01-19T18:27:29.392Z,7.23
2023-01-19T18:29:56.800Z,8.03
2023-01-19T18:32:26.393Z,9.60
2023-01-19T18:34:54.427Z,10.20
2023-01-19T18:37:21.740Z,10.97
2023-01-19T18:39:49.099Z,11.43
2023-01-19T18:42:16.423Z,14.30
2023-01-19T18:44:43.870Z,14.50
2023-01-19T18:47:11.223Z,12.87
2023-01-19T18:49:38.588Z,14.83
2023-01-19T18:52:06.121Z,15.03
2023-01-19T18:54:33.375Z,13.63
2023-01-19T18:57:00.867Z,15.77
2023-01-19T18:59:28.405Z,14.20
2023-01-19T19:01:55.978Z,15.53
2023-01-19T19:04:23.237Z,14.97
2023-01-19T19:06:50.614Z,12.77
2023-01-19T19:09:17.875Z,12.73
2023-01-19T19:11:45.212Z,13.90
2023-01-19T19:14:12.517Z,12.70
2023-01-19T19:16:39.942Z,15.70
2023-01-19T19:19:11.877Z,14.60
2023-01-19T19:21:39.130Z,14.67
2023-01-19T19:24:06.692Z,12.87
2023-01-19T19:26:34.130Z,13.37
2023-01-19T19:29:02.229Z,13.13
2023-01-19T19:31:30.293Z,14.80
2023-01-19T19:33:58.627Z,14.17
2023-01-19T19:36:26.783Z,15.30
2023-01-19T19:38:54.473Z,13.50
2023-01-19T19:41:23.149Z,11.97
2023-01-19T19:43:51.190Z,13.37
2023-01-19T19:46:20.277Z,17.93
2023-01-19T19:48:48.497Z,15.57
2023-01-19T19:51:19.051Z,15.83
2023-01-19T19:54:05.463Z,13.60
2023-01-19T19:56:34.378Z,12.90
2023-01-19T19:59:01.761Z,11.90
2023-01-19T20:01:32.607Z,14.00
2023-01-19T20:04:04.690Z,13.10
2023-01-19T20:06:37.327Z,13.40
2023-01-19T20:09:08.553Z,12.43
2023-01-19T20:11:36.299Z,11.37
2023-01-19T20:14:07.412Z,11.30
2023-01-19T20:16:35.119Z,11.03
2023-01-19T20:19:02.921Z,9.10
2023-01-19T20:21:31.517Z,9.97
2023-01-19T20:24:04.216Z,9.03
2023-01-19T20:26:32.699Z,8.80
2023-01-19T20:29:03.038Z,9.23
2023-01-19T20:31:31.739Z,10.40
2023-01-19T20:34:00.732Z,8.80
2023-01-19T20:36:28.985Z,9.17
2023-01-19T20:38:56.511Z,10.63
2023-01-19T20:41:24.329Z,10.47
2023-01-19T20:43:52.102Z,9.10
2023-01-19T20:46:19.781Z,8.67
2023-01-19T20:48:52.767Z,8.57
2023-01-19T20:51:20.480Z,9.70
2023-01-19T20:53:48.439Z,10.10
2023-01-19T20:56:16.987Z,10.20
2023-01-19T20:58:44.838Z,10.13
2023-01-19T21:01:13.550Z,12.30
2023-01-19T21:03:41.046Z,11.43
2023-01-19T21:06:08.578Z,10.17
2023-01-19T21:08:36.215Z,9.83
2023-01-19T21:11:03.701Z,10.70
2023-01-19T21:13:31.634Z,10.73
2023-01-19T21:15:59.341Z,11.00
2023-01-19T21:18:28.021Z,12.60
2023-01-19T21:20:57.580Z,12.90
2023-01-19T21:23:29.088Z,12.93
2023-01-19T21:25:58.339Z,10.70
2023-01-19T21:28:26.699Z,12.30
2023-01-19T21:30:54.939Z,12.30
2023-01-19T21:33:22.468Z,11.97
2023-01-19T21:35:54.000Z,12.13
2023-01-19T21:38:21.759Z,11.13
2023-01-19T21:40:50.350Z,13.17
2023-01-19T21:43:19.289Z,11.93
2023-01-19T21:45:47.285Z,14.10
2023-01-19T21:48:14.630Z,12.17
2023-01-19T21:50:42.454Z,12.03
2023-01-19T21:53:11.327Z,13.63
2023-01-19T21:55:39.332Z,13.47
2023-01-19T21:58:06.803Z,10.93
2023-01-19T22:00:34.587Z,12.37
2023-01-19T22:05:47.042Z,13.90
2023-01-19T22:08:14.475Z,15.97
2023-01-19T22:10:41.895Z,14.57
2023-01-19T22:13:09.492Z,11.47
2023-01-19T22:15:36.814Z,13.17
2023-01-19T22:18:04.120Z,11.40
2023-01-19T22:20:31.364Z,11.83
2023-01-19T22:22:58.773Z,15.60
2023-01-19T22:25:27.951Z,15.10
2023-01-19T22:27:55.979Z,12.70
2023-01-19T22:30:23.356Z,13.03
2023-01-19T22:32:50.752Z,13.90
2023-01-19T22:35:18.030Z,13.80
2023-01-19T22:37:45.272Z,12.43
2023-01-19T22:40:12.721Z,15.27
2023-01-19T22:42:40.166Z,12.67
2023-01-19T22:45:07.782Z,13.83
2023-01-19T22:47:35.018Z,14.83
2023-01-19T22:50:02.244Z,16.40
2023-01-19T22:52:30.040Z,15.23
2023-01-19T22:54:58.219Z,12.83
2023-01-19T22:57:25.509Z,13.93
2023-01-19T22:59:52.771Z,16.40
2023-01-19T23:02:21.013Z,13.43
2023-01-19T23:04:48.466Z,14.43
2023-01-19T23:07:15.803Z,14.03
2023-01-19T23:09:43.061Z,13.27
2023-01-19T23:12:10.273Z,14.00
2023-01-19T23:14:37.611Z,13.57
2023-01-19T23:17:04.935Z,14.23
2023-01-19T23:19:32.236Z,15.53
2023-01-19T23:21:59.466Z,13.17
2023-01-19T23:24:26.826Z,14.50
2023-01-19T23:26:54.055Z,14.87
2023-01-19T23:29:21.321Z,14.50
2023-01-19T23:31:49.493Z,13.53
2023-01-19T23:34:17.038Z,13.37
2023-01-19T23:36:44.756Z,16.73
2023-01-19T23:39:16.648Z,14.57
2023-01-19T23:41:43.839Z,15.60
2023-01-19T23:44:11.058Z,13.27
2023-01-19T23:46:38.820Z,13.90
2023-01-19T23:49:06.364Z,13.97
2023-01-19T23:51:34.109Z,14.20
2023-01-19T23:54:01.927Z,15.10
2023-01-19T23:56:30.707Z,15.90
2023-01-19T23:59:02.172Z,13.20
